sensor_id;sensor_type;location;lat;lon;timestamp;P1;durP1;ratioP1;P2;durP2;ratioP2
31730;SDS011;18310;55.586;12.286;2022-10-23T00:02:41;17.80;;;10.40;;
31730;SDS011;18310;55.586;12.286;2022-10-23T00:05:46;16.27;;;10.52;;
31730;SDS011;18310;55.586;12.286;2022-10-23T00:08:50;17.25;;;9.85;;
31730;SDS011;18310;55.586;12.286;2022-10-23T00:11:53;13.98;;;8.90;;
31730;SDS011;18310;55.586;12.286;2022-10-23T00:14:57;15.23;;;8.70;;
31730;SDS011;18310;55.586;12.286;2022-10-23T00:18:00;15.43;;;7.85;;
31730;SDS011;18310;55.586;12.286;2022-10-23T00:21:03;12.23;;;7.45;;
31730;SDS011;18310;55.586;12.286;2022-10-23T00:24:09;13.65;;;8.23;;
31730;SDS011;18310;55.586;12.286;2022-10-23T00:27:12;10.68;;;7.03;;
31730;SDS011;18310;55.586;12.286;2022-10-23T00:30:16;16.63;;;8.10;;
31730;SDS011;18310;55.586;12.286;2022-10-23T00:33:19;10.95;;;7.78;;
31730;SDS011;18310;55.586;12.286;2022-10-23T00:36:22;11.98;;;7.53;;
31730;SDS011;18310;55.586;12.286;2022-10-23T00:39:26;10.90;;;7.13;;
31730;SDS011;18310;55.586;12.286;2022-10-23T00:42:30;10.77;;;6.53;;
31730;SDS011;18310;55.586;12.286;2022-10-23T00:45:33;12.15;;;7.43;;
31730;SDS011;18310;55.586;12.286;2022-10-23T00:48:36;11.60;;;7.33;;
31730;SDS011;18310;55.586;12.286;2022-10-23T00:51:40;13.68;;;7.38;;
31730;SDS011;18310;55.586;12.286;2022-10-23T00:54:47;10.75;;;5.95;;
31730;SDS011;18310;55.586;12.286;2022-10-23T00:57:51;9.20;;;6.10;;
31730;SDS011;18310;55.586;12.286;2022-10-23T01:00:55;10.15;;;5.47;;
31730;SDS011;18310;55.586;12.286;2022-10-23T01:03:58;10.45;;;6.05;;
31730;SDS011;18310;55.586;12.286;2022-10-23T01:07:04;9.68;;;5.40;;
31730;SDS011;18310;55.586;12.286;2022-10-23T01:10:20;10.53;;;5.30;;
31730;SDS011;18310;55.586;12.286;2022-10-23T01:13:34;14.93;;;5.68;;
31730;SDS011;18310;55.586;12.286;2022-10-23T01:16:47;11.05;;;5.70;;
31730;SDS011;18310;55.586;12.286;2022-10-23T01:20:06;16.83;;;5.70;;
31730;SDS011;18310;55.586;12.286;2022-10-23T01:23:30;8.90;;;5.18;;
31730;SDS011;18310;55.586;12.286;2022-10-23T01:27:11;11.73;;;5.60;;
31730;SDS011;18310;55.586;12.286;2022-10-23T01:30:23;9.98;;;5.15;;
31730;SDS011;18310;55.586;12.286;2022-10-23T01:33:30;11.68;;;4.68;;
31730;SDS011;18310;55.586;12.286;2022-10-23T01:36:39;10.98;;;4.95;;
31730;SDS011;18310;55.586;12.286;2022-10-23T01:39:48;11.10;;;5.85;;
31730;SDS011;18310;55.586;12.286;2022-10-23T01:43:00;6.97;;;4.60;;
31730;SDS011;18310;55.586;12.286;2022-10-23T01:46:11;13.60;;;6.07;;
31730;SDS011;18310;55.586;12.286;2022-10-23T01:49:18;8.23;;;4.20;;
31730;SDS011;18310;55.586;12.286;2022-10-23T01:52:24;9.05;;;4.05;;
31730;SDS011;18310;55.586;12.286;2022-10-23T01:55:27;11.80;;;4.47;;
31730;SDS011;18310;55.586;12.286;2022-10-23T01:58:34;7.85;;;4.30;;
31730;SDS011;18310;55.586;12.286;2022-10-23T02:01:38;7.93;;;4.13;;
31730;SDS011;18310;55.586;12.286;2022-10-23T02:04:48;9.00;;;4.03;;
31730;SDS011;18310;55.586;12.286;2022-10-23T02:07:58;9.60;;;3.90;;
31730;SDS011;18310;55.586;12.286;2022-10-23T02:11:03;11.18;;;3.75;;
31730;SDS011;18310;55.586;12.286;2022-10-23T02:14:15;7.75;;;3.67;;
31730;SDS011;18310;55.586;12.286;2022-10-23T02:17:25;8.40;;;3.90;;
31730;SDS011;18310;55.586;12.286;2022-10-23T02:20:41;8.25;;;3.65;;
31730;SDS011;18310;55.586;12.286;2022-10-23T02:23:49;9.30;;;3.78;;
31730;SDS011;18310;55.586;12.286;2022-10-23T02:27:01;8.02;;;3.60;;
31730;SDS011;18310;55.586;12.286;2022-10-23T02:30:13;10.95;;;3.75;;
31730;SDS011;18310;55.586;12.286;2022-10-23T02:33:20;11.73;;;3.78;;
31730;SDS011;18310;55.586;12.286;2022-10-23T02:36:24;10.25;;;3.83;;
31730;SDS011;18310;55.586;12.286;2022-10-23T02:39:28;20.77;;;4.33;;
31730;SDS011;18310;55.586;12.286;2022-10-23T02:42:32;11.52;;;4.20;;
31730;SDS011;18310;55.586;12.286;2022-10-23T02:45:47;7.50;;;3.70;;
31730;SDS011;18310;55.586;12.286;2022-10-23T02:49:03;6.82;;;2.75;;
31730;SDS011;18310;55.586;12.286;2022-10-23T02:52:16;8.40;;;3.03;;
31730;SDS011;18310;55.586;12.286;2022-10-23T02:55:32;7.90;;;3.20;;
31730;SDS011;18310;55.586;12.286;2022-10-23T02:58:53;7.57;;;3.50;;
31730;SDS011;18310;55.586;12.286;2022-10-23T03:02:10;8.95;;;3.53;;
31730;SDS011;18310;55.586;12.286;2022-10-23T03:05:23;9.48;;;3.10;;
31730;SDS011;18310;55.586;12.286;2022-10-23T03:08:39;7.50;;;3.35;;
31730;SDS011;18310;55.586;12.286;2022-10-23T03:11:44;7.95;;;2.80;;
31730;SDS011;18310;55.586;12.286;2022-10-23T03:14:47;9.32;;;3.20;;
31730;SDS011;18310;55.586;12.286;2022-10-23T03:17:51;10.15;;;3.00;;
31730;SDS011;18310;55.586;12.286;2022-10-23T03:20:55;9.35;;;3.20;;
31730;SDS011;18310;55.586;12.286;2022-10-23T03:23:58;6.05;;;3.22;;
31730;SDS011;18310;55.586;12.286;2022-10-23T03:27:01;8.45;;;2.63;;
31730;SDS011;18310;55.586;12.286;2022-10-23T03:30:05;10.00;;;2.80;;
31730;SDS011;18310;55.586;12.286;2022-10-23T03:33:11;7.20;;;3.05;;
31730;SDS011;18310;55.586;12.286;2022-10-23T03:36:14;6.47;;;2.90;;
31730;SDS011;18310;55.586;12.286;2022-10-23T03:39:17;7.35;;;3.13;;
31730;SDS011;18310;55.586;12.286;2022-10-23T03:42:20;8.27;;;3.72;;
31730;SDS011;18310;55.586;12.286;2022-10-23T03:45:24;10.23;;;3.58;;
31730;SDS011;18310;55.586;12.286;2022-10-23T03:48:28;11.13;;;4.00;;
31730;SDS011;18310;55.586;12.286;2022-10-23T03:51:32;9.27;;;3.10;;
31730;SDS011;18310;55.586;12.286;2022-10-23T03:54:36;8.60;;;3.40;;
31730;SDS011;18310;55.586;12.286;2022-10-23T03:57:39;7.47;;;3.33;;
31730;SDS011;18310;55.586;12.286;2022-10-23T04:00:42;10.48;;;4.25;;
31730;SDS011;18310;55.586;12.286;2022-10-23T04:03:46;9.55;;;3.50;;
31730;SDS011;18310;55.586;12.286;2022-10-23T04:06:50;7.80;;;3.88;;
31730;SDS011;18310;55.586;12.286;2022-10-23T04:09:53;6.68;;;3.45;;
31730;SDS011;18310;55.586;12.286;2022-10-23T04:12:56;10.25;;;3.28;;
31730;SDS011;18310;55.586;12.286;2022-10-23T04:15:59;8.88;;;3.50;;
31730;SDS011;18310;55.586;12.286;2022-10-23T04:19:03;9.35;;;3.40;;
31730;SDS011;18310;55.586;12.286;2022-10-23T04:22:07;6.60;;;3.13;;
31730;SDS011;18310;55.586;12.286;2022-10-23T04:25:10;6.35;;;2.63;;
31730;SDS011;18310;55.586;12.286;2022-10-23T04:28:13;7.20;;;2.72;;
31730;SDS011;18310;55.586;12.286;2022-10-23T04:31:16;8.75;;;2.65;;
31730;SDS011;18310;55.586;12.286;2022-10-23T04:34:21;8.23;;;2.63;;
31730;SDS011;18310;55.586;12.286;2022-10-23T04:37:24;5.13;;;2.50;;
31730;SDS011;18310;55.586;12.286;2022-10-23T04:40:28;5.18;;;2.53;;
31730;SDS011;18310;55.586;12.286;2022-10-23T04:43:31;11.48;;;2.80;;
31730;SDS011;18310;55.586;12.286;2022-10-23T04:46:34;6.88;;;2.63;;
31730;SDS011;18310;55.586;12.286;2022-10-23T04:49:38;3.72;;;1.80;;
31730;SDS011;18310;55.586;12.286;2022-10-23T04:52:41;6.13;;;2.75;;
31730;SDS011;18310;55.586;12.286;2022-10-23T04:55:47;9.20;;;2.63;;
31730;SDS011;18310;55.586;12.286;2022-10-23T04:58:51;10.93;;;2.72;;
31730;SDS011;18310;55.586;12.286;2022-10-23T05:01:55;5.53;;;2.20;;
31730;SDS011;18310;55.586;12.286;2022-10-23T05:04:59;7.43;;;2.20;;
31730;SDS011;18310;55.586;12.286;2022-10-23T05:08:02;10.23;;;2.13;;
31730;SDS011;18310;55.586;12.286;2022-10-23T05:11:05;5.07;;;2.30;;
31730;SDS011;18310;55.586;12.286;2022-10-23T05:14:09;5.65;;;1.95;;
31730;SDS011;18310;55.586;12.286;2022-10-23T05:17:12;7.72;;;2.15;;
31730;SDS011;18310;55.586;12.286;2022-10-23T05:20:23;8.80;;;2.47;;
31730;SDS011;18310;55.586;12.286;2022-10-23T05:23:31;9.73;;;2.38;;
31730;SDS011;18310;55.586;12.286;2022-10-23T05:26:38;4.70;;;2.20;;
31730;SDS011;18310;55.586;12.286;2022-10-23T05:29:41;9.75;;;2.80;;
31730;SDS011;18310;55.586;12.286;2022-10-23T05:32:44;12.87;;;2.53;;
31730;SDS011;18310;55.586;12.286;2022-10-23T05:35:49;8.90;;;2.60;;
31730;SDS011;18310;55.586;12.286;2022-10-23T05:38:52;12.60;;;2.67;;
31730;SDS011;18310;55.586;12.286;2022-10-23T05:41:56;12.95;;;3.28;;
31730;SDS011;18310;55.586;12.286;2022-10-23T05:44:59;5.90;;;3.05;;
31730;SDS011;18310;55.586;12.286;2022-10-23T05:48:02;9.07;;;3.25;;
31730;SDS011;18310;55.586;12.286;2022-10-23T05:54:23;8.07;;;2.95;;
31730;SDS011;18310;55.586;12.286;2022-10-23T05:57:26;5.63;;;2.97;;
31730;SDS011;18310;55.586;12.286;2022-10-23T06:00:29;11.00;;;3.17;;
31730;SDS011;18310;55.586;12.286;2022-10-23T06:03:33;8.65;;;3.30;;
31730;SDS011;18310;55.586;12.286;2022-10-23T06:06:38;6.67;;;2.60;;
31730;SDS011;18310;55.586;12.286;2022-10-23T06:09:41;7.50;;;2.80;;
31730;SDS011;18310;55.586;12.286;2022-10-23T06:12:44;5.32;;;2.40;;
31730;SDS011;18310;55.586;12.286;2022-10-23T06:15:47;13.30;;;3.20;;
31730;SDS011;18310;55.586;12.286;2022-10-23T06:18:50;7.43;;;2.73;;
31730;SDS011;18310;55.586;12.286;2022-10-23T06:21:54;8.53;;;3.20;;
31730;SDS011;18310;55.586;12.286;2022-10-23T06:24:58;9.18;;;3.35;;
31730;SDS011;18310;55.586;12.286;2022-10-23T06:28:01;9.70;;;3.47;;
31730;SDS011;18310;55.586;12.286;2022-10-23T06:31:04;7.95;;;3.28;;
31730;SDS011;18310;55.586;12.286;2022-10-23T06:34:09;9.40;;;3.08;;
31730;SDS011;18310;55.586;12.286;2022-10-23T06:37:15;9.50;;;3.33;;
31730;SDS011;18310;55.586;12.286;2022-10-23T06:40:18;13.30;;;3.30;;
31730;SDS011;18310;55.586;12.286;2022-10-23T06:43:21;9.20;;;3.42;;
31730;SDS011;18310;55.586;12.286;2022-10-23T06:46:24;11.43;;;3.73;;
31730;SDS011;18310;55.586;12.286;2022-10-23T06:49:30;9.23;;;2.97;;
31730;SDS011;18310;55.586;12.286;2022-10-23T06:52:34;12.00;;;3.40;;
31730;SDS011;18310;55.586;12.286;2022-10-23T06:55:48;8.90;;;2.90;;
31730;SDS011;18310;55.586;12.286;2022-10-23T06:58:55;8.95;;;2.78;;
31730;SDS011;18310;55.586;12.286;2022-10-23T07:01:58;9.15;;;3.05;;
31730;SDS011;18310;55.586;12.286;2022-10-23T07:05:02;10.35;;;3.08;;
31730;SDS011;18310;55.586;12.286;2022-10-23T07:08:12;7.53;;;3.38;;
31730;SDS011;18310;55.586;12.286;2022-10-23T07:11:16;11.25;;;3.35;;
31730;SDS011;18310;55.586;12.286;2022-10-23T07:14:20;7.27;;;3.53;;
31730;SDS011;18310;55.586;12.286;2022-10-23T07:17:23;8.68;;;3.28;;
31730;SDS011;18310;55.586;12.286;2022-10-23T07:20:27;9.57;;;3.40;;
31730;SDS011;18310;55.586;12.286;2022-10-23T07:23:31;6.72;;;3.20;;
31730;SDS011;18310;55.586;12.286;2022-10-23T07:26:34;8.15;;;3.55;;
31730;SDS011;18310;55.586;12.286;2022-10-23T07:29:37;11.32;;;3.20;;
31730;SDS011;18310;55.586;12.286;2022-10-23T07:32:41;10.95;;;3.22;;
31730;SDS011;18310;55.586;12.286;2022-10-23T07:35:45;7.18;;;3.28;;
31730;SDS011;18310;55.586;12.286;2022-10-23T07:38:50;11.27;;;3.50;;
31730;SDS011;18310;55.586;12.286;2022-10-23T07:41:53;7.82;;;3.28;;
31730;SDS011;18310;55.586;12.286;2022-10-23T07:44:56;12.53;;;2.97;;
31730;SDS011;18310;55.586;12.286;2022-10-23T07:47:59;8.63;;;3.30;;
31730;SDS011;18310;55.586;12.286;2022-10-23T07:51:03;7.90;;;3.00;;
31730;SDS011;18310;55.586;12.286;2022-10-23T07:54:12;7.10;;;3.22;;
31730;SDS011;18310;55.586;12.286;2022-10-23T07:57:15;9.30;;;2.80;;
31730;SDS011;18310;55.586;12.286;2022-10-23T08:00:18;8.75;;;3.15;;
31730;SDS011;18310;55.586;12.286;2022-10-23T08:03:21;12.13;;;2.83;;
31730;SDS011;18310;55.586;12.286;2022-10-23T08:06:25;8.95;;;2.60;;
31730;SDS011;18310;55.586;12.286;2022-10-23T08:09:30;8.07;;;2.97;;
31730;SDS011;18310;55.586;12.286;2022-10-23T08:12:35;5.90;;;2.50;;
31730;SDS011;18310;55.586;12.286;2022-10-23T08:15:39;12.55;;;2.80;;
31730;SDS011;18310;55.586;12.286;2022-10-23T08:18:45;8.80;;;3.00;;
31730;SDS011;18310;55.586;12.286;2022-10-23T08:21:49;8.85;;;3.22;;
31730;SDS011;18310;55.586;12.286;2022-10-23T08:24:56;6.55;;;3.00;;
31730;SDS011;18310;55.586;12.286;2022-10-23T08:27:59;11.55;;;3.95;;
31730;SDS011;18310;55.586;12.286;2022-10-23T08:31:07;9.48;;;3.53;;
31730;SDS011;18310;55.586;12.286;2022-10-23T08:34:12;9.73;;;3.67;;
31730;SDS011;18310;55.586;12.286;2022-10-23T08:37:16;11.65;;;3.50;;
31730;SDS011;18310;55.586;12.286;2022-10-23T08:40:22;11.43;;;3.65;;
31730;SDS011;18310;55.586;12.286;2022-10-23T08:43:29;8.52;;;3.53;;
31730;SDS011;18310;55.586;12.286;2022-10-23T08:46:39;13.60;;;3.78;;
31730;SDS011;18310;55.586;12.286;2022-10-23T08:49:48;7.82;;;3.55;;
31730;SDS011;18310;55.586;12.286;2022-10-23T08:52:58;11.68;;;3.72;;
31730;SDS011;18310;55.586;12.286;2022-10-23T08:56:13;8.75;;;3.92;;
31730;SDS011;18310;55.586;12.286;2022-10-23T08:59:24;9.38;;;3.60;;
31730;SDS011;18310;55.586;12.286;2022-10-23T09:02:35;10.20;;;3.38;;
31730;SDS011;18310;55.586;12.286;2022-10-23T09:05:48;6.28;;;3.15;;
31730;SDS011;18310;55.586;12.286;2022-10-23T09:09:13;9.63;;;3.30;;
31730;SDS011;18310;55.586;12.286;2022-10-23T09:12:52;8.70;;;2.95;;
31730;SDS011;18310;55.586;12.286;2022-10-23T09:16:03;10.95;;;3.30;;
31730;SDS011;18310;55.586;12.286;2022-10-23T09:19:23;8.77;;;2.42;;
31730;SDS011;18310;55.586;12.286;2022-10-23T09:22:29;6.63;;;2.67;;
31730;SDS011;18310;55.586;12.286;2022-10-23T09:25:33;6.10;;;2.67;;
31730;SDS011;18310;55.586;12.286;2022-10-23T09:28:45;9.57;;;2.53;;
31730;SDS011;18310;55.586;12.286;2022-10-23T09:31:50;10.82;;;2.72;;
31730;SDS011;18310;55.586;12.286;2022-10-23T09:34:54;6.75;;;2.85;;
31730;SDS011;18310;55.586;12.286;2022-10-23T09:37:58;8.73;;;3.30;;
31730;SDS011;18310;55.586;12.286;2022-10-23T09:41:01;12.82;;;2.63;;
31730;SDS011;18310;55.586;12.286;2022-10-23T09:44:14;5.78;;;2.67;;
31730;SDS011;18310;55.586;12.286;2022-10-23T09:47:22;10.30;;;2.43;;
31730;SDS011;18310;55.586;12.286;2022-10-23T09:50:28;8.07;;;2.78;;
31730;SDS011;18310;55.586;12.286;2022-10-23T09:53:32;12.60;;;2.30;;
31730;SDS011;18310;55.586;12.286;2022-10-23T09:56:39;7.63;;;2.38;;
31730;SDS011;18310;55.586;12.286;2022-10-23T09:59:54;6.68;;;2.58;;
31730;SDS011;18310;55.586;12.286;2022-10-23T10:03:03;6.43;;;2.63;;
31730;SDS011;18310;55.586;12.286;2022-10-23T10:06:17;8.57;;;2.25;;
31730;SDS011;18310;55.586;12.286;2022-10-23T10:09:26;7.00;;;1.80;;
31730;SDS011;18310;55.586;12.286;2022-10-23T10:12:30;8.55;;;2.42;;
31730;SDS011;18310;55.586;12.286;2022-10-23T10:15:49;6.75;;;1.73;;
31730;SDS011;18310;55.586;12.286;2022-10-23T10:19:01;5.35;;;1.73;;
31730;SDS011;18310;55.586;12.286;2022-10-23T10:25:28;6.07;;;2.00;;
31730;SDS011;18310;55.586;12.286;2022-10-23T10:28:51;5.80;;;1.80;;
31730;SDS011;18310;55.586;12.286;2022-10-23T10:32:11;7.35;;;2.15;;
31730;SDS011;18310;55.586;12.286;2022-10-23T10:35:35;6.60;;;1.90;;
31730;SDS011;18310;55.586;12.286;2022-10-23T10:38:45;8.70;;;2.05;;
31730;SDS011;18310;55.586;12.286;2022-10-23T10:41:54;7.90;;;2.08;;
31730;SDS011;18310;55.586;12.286;2022-10-23T10:45:24;8.38;;;3.10;;
31730;SDS011;18310;55.586;12.286;2022-10-23T10:48:42;10.88;;;2.42;;
31730;SDS011;18310;55.586;12.286;2022-10-23T10:51:59;7.55;;;2.42;;
31730;SDS011;18310;55.586;12.286;2022-10-23T10:55:16;8.40;;;2.50;;
31730;SDS011;18310;55.586;12.286;2022-10-23T10:58:30;9.13;;;2.40;;
31730;SDS011;18310;55.586;12.286;2022-10-23T11:01:44;6.57;;;2.30;;
31730;SDS011;18310;55.586;12.286;2022-10-23T11:04:58;10.02;;;2.47;;
31730;SDS011;18310;55.586;12.286;2022-10-23T11:08:17;10.00;;;2.10;;
31730;SDS011;18310;55.586;12.286;2022-10-23T11:11:30;10.70;;;2.53;;
31730;SDS011;18310;55.586;12.286;2022-10-23T11:14:40;6.93;;;2.33;;
31730;SDS011;18310;55.586;12.286;2022-10-23T11:17:45;6.13;;;2.15;;
31730;SDS011;18310;55.586;12.286;2022-10-23T11:20:56;8.55;;;2.40;;
31730;SDS011;18310;55.586;12.286;2022-10-23T11:24:26;8.65;;;2.00;;
31730;SDS011;18310;55.586;12.286;2022-10-23T11:28:16;10.30;;;1.90;;
31730;SDS011;18310;55.586;12.286;2022-10-23T11:31:37;7.10;;;2.22;;
31730;SDS011;18310;55.586;12.286;2022-10-23T11:38:24;6.85;;;1.83;;
31730;SDS011;18310;55.586;12.286;2022-10-23T11:41:31;5.28;;;1.50;;
31730;SDS011;18310;55.586;12.286;2022-10-23T11:44:40;9.18;;;2.05;;
31730;SDS011;18310;55.586;12.286;2022-10-23T11:47:54;6.03;;;1.35;;
31730;SDS011;18310;55.586;12.286;2022-10-23T11:54:20;6.03;;;1.35;;
31730;SDS011;18310;55.586;12.286;2022-10-23T11:57:27;7.63;;;1.77;;
31730;SDS011;18310;55.586;12.286;2022-10-23T12:00:31;6.60;;;2.05;;
31730;SDS011;18310;55.586;12.286;2022-10-23T12:03:46;12.38;;;2.45;;
31730;SDS011;18310;55.586;12.286;2022-10-23T12:06:54;8.25;;;2.35;;
31730;SDS011;18310;55.586;12.286;2022-10-23T12:10:04;5.80;;;1.88;;
31730;SDS011;18310;55.586;12.286;2022-10-23T12:13:27;9.85;;;2.25;;
31730;SDS011;18310;55.586;12.286;2022-10-23T12:16:45;9.45;;;2.22;;
31730;SDS011;18310;55.586;12.286;2022-10-23T12:19:49;10.90;;;2.50;;
31730;SDS011;18310;55.586;12.286;2022-10-23T12:23:02;6.80;;;2.35;;
31730;SDS011;18310;55.586;12.286;2022-10-23T12:26:35;7.68;;;1.67;;
31730;SDS011;18310;55.586;12.286;2022-10-23T12:30:17;7.77;;;2.00;;
31730;SDS011;18310;55.586;12.286;2022-10-23T12:33:24;9.02;;;1.85;;
31730;SDS011;18310;55.586;12.286;2022-10-23T12:36:39;7.78;;;1.98;;
31730;SDS011;18310;55.586;12.286;2022-10-23T12:39:54;8.70;;;1.98;;
31730;SDS011;18310;55.586;12.286;2022-10-23T12:43:01;10.32;;;2.33;;
31730;SDS011;18310;55.586;12.286;2022-10-23T12:46:06;6.53;;;1.90;;
31730;SDS011;18310;55.586;12.286;2022-10-23T12:49:30;7.97;;;2.17;;
31730;SDS011;18310;55.586;12.286;2022-10-23T12:52:35;9.07;;;2.00;;
31730;SDS011;18310;55.586;12.286;2022-10-23T12:58:53;9.98;;;2.22;;
31730;SDS011;18310;55.586;12.286;2022-10-23T13:02:00;8.75;;;1.90;;
31730;SDS011;18310;55.586;12.286;2022-10-23T13:05:16;9.30;;;1.90;;
31730;SDS011;18310;55.586;12.286;2022-10-23T13:08:21;7.68;;;2.35;;
31730;SDS011;18310;55.586;12.286;2022-10-23T13:11:29;7.40;;;2.08;;
31730;SDS011;18310;55.586;12.286;2022-10-23T13:14:35;8.98;;;2.40;;
31730;SDS011;18310;55.586;12.286;2022-10-23T13:17:45;7.47;;;2.20;;
31730;SDS011;18310;55.586;12.286;2022-10-23T13:21:01;9.57;;;2.40;;
31730;SDS011;18310;55.586;12.286;2022-10-23T13:24:04;5.63;;;2.43;;
31730;SDS011;18310;55.586;12.286;2022-10-23T13:27:24;7.22;;;2.15;;
31730;SDS011;18310;55.586;12.286;2022-10-23T13:30:34;6.05;;;2.30;;
31730;SDS011;18310;55.586;12.286;2022-10-23T13:33:41;7.55;;;2.60;;
31730;SDS011;18310;55.586;12.286;2022-10-23T13:36:52;5.72;;;2.20;;
31730;SDS011;18310;55.586;12.286;2022-10-23T13:43:08;6.38;;;2.13;;
31730;SDS011;18310;55.586;12.286;2022-10-23T13:46:21;6.03;;;2.05;;
31730;SDS011;18310;55.586;12.286;2022-10-23T13:49:25;5.90;;;2.08;;
31730;SDS011;18310;55.586;12.286;2022-10-23T13:52:29;5.33;;;2.30;;
31730;SDS011;18310;55.586;12.286;2022-10-23T13:55:35;5.50;;;1.80;;
31730;SDS011;18310;55.586;12.286;2022-10-23T13:58:42;6.22;;;1.83;;
31730;SDS011;18310;55.586;12.286;2022-10-23T14:01:47;5.93;;;2.28;;
31730;SDS011;18310;55.586;12.286;2022-10-23T14:04:51;8.85;;;2.25;;
31730;SDS011;18310;55.586;12.286;2022-10-23T14:07:56;7.50;;;2.85;;
31730;SDS011;18310;55.586;12.286;2022-10-23T14:10:59;9.30;;;2.72;;
31730;SDS011;18310;55.586;12.286;2022-10-23T14:14:06;11.43;;;3.13;;
31730;SDS011;18310;55.586;12.286;2022-10-23T14:17:11;6.85;;;2.40;;
31730;SDS011;18310;55.586;12.286;2022-10-23T14:20:14;8.65;;;3.15;;
31730;SDS011;18310;55.586;12.286;2022-10-23T14:23:19;9.18;;;3.15;;
31730;SDS011;18310;55.586;12.286;2022-10-23T14:26:25;13.98;;;2.97;;
31730;SDS011;18310;55.586;12.286;2022-10-23T14:29:31;10.73;;;2.83;;
31730;SDS011;18310;55.586;12.286;2022-10-23T14:32:36;9.65;;;2.45;;
31730;SDS011;18310;55.586;12.286;2022-10-23T14:35:39;8.77;;;2.72;;
31730;SDS011;18310;55.586;12.286;2022-10-23T14:38:43;14.50;;;2.80;;
31730;SDS011;18310;55.586;12.286;2022-10-23T14:41:47;8.60;;;3.17;;
31730;SDS011;18310;55.586;12.286;2022-10-23T14:44:52;10.38;;;3.28;;
31730;SDS011;18310;55.586;12.286;2022-10-23T14:47:56;7.35;;;2.42;;
31730;SDS011;18310;55.586;12.286;2022-10-23T14:51:01;8.63;;;3.00;;
31730;SDS011;18310;55.586;12.286;2022-10-23T14:58:34;9.40;;;2.42;;
31730;SDS011;18310;55.586;12.286;2022-10-23T15:01:38;9.57;;;3.10;;
31730;SDS011;18310;55.586;12.286;2022-10-23T15:04:52;9.38;;;2.83;;
31730;SDS011;18310;55.586;12.286;2022-10-23T15:07:55;14.52;;;2.92;;
31730;SDS011;18310;55.586;12.286;2022-10-23T15:10:59;10.52;;;3.20;;
31730;SDS011;18310;55.586;12.286;2022-10-23T15:14:26;8.57;;;2.83;;
31730;SDS011;18310;55.586;12.286;2022-10-23T15:17:30;6.35;;;2.38;;
31730;SDS011;18310;55.586;12.286;2022-10-23T15:20:35;9.68;;;2.75;;
31730;SDS011;18310;55.586;12.286;2022-10-23T15:23:39;12.13;;;3.10;;
31730;SDS011;18310;55.586;12.286;2022-10-23T15:26:44;7.43;;;2.28;;
31730;SDS011;18310;55.586;12.286;2022-10-23T15:30:06;14.68;;;3.40;;
31730;SDS011;18310;55.586;12.286;2022-10-23T15:33:31;9.27;;;3.83;;
31730;SDS011;18310;55.586;12.286;2022-10-23T15:36:56;14.60;;;5.60;;
31730;SDS011;18310;55.586;12.286;2022-10-23T15:44:54;10.00;;;4.80;;
31730;SDS011;18310;55.586;12.286;2022-10-23T15:53:30;11.70;;;3.83;;
31730;SDS011;18310;55.586;12.286;2022-10-23T15:56:54;11.95;;;3.78;;
31730;SDS011;18310;55.586;12.286;2022-10-23T16:00:05;9.57;;;3.78;;
31730;SDS011;18310;55.586;12.286;2022-10-23T16:03:11;11.27;;;4.13;;
31730;SDS011;18310;55.586;12.286;2022-10-23T16:06:14;12.80;;;3.67;;
31730;SDS011;18310;55.586;12.286;2022-10-23T16:09:20;12.15;;;4.43;;
31730;SDS011;18310;55.586;12.286;2022-10-23T16:15:26;10.93;;;3.92;;
31730;SDS011;18310;55.586;12.286;2022-10-23T16:18:28;12.30;;;3.80;;
31730;SDS011;18310;55.586;12.286;2022-10-23T16:21:32;11.52;;;4.97;;
31730;SDS011;18310;55.586;12.286;2022-10-23T16:24:38;10.90;;;4.13;;
31730;SDS011;18310;55.586;12.286;2022-10-23T16:27:41;14.80;;;5.13;;
31730;SDS011;18310;55.586;12.286;2022-10-23T16:30:45;11.00;;;4.70;;
31730;SDS011;18310;55.586;12.286;2022-10-23T16:33:48;9.95;;;4.85;;
31730;SDS011;18310;55.586;12.286;2022-10-23T16:40:22;13.90;;;4.70;;
31730;SDS011;18310;55.586;12.286;2022-10-23T16:43:37;10.80;;;3.78;;
31730;SDS011;18310;55.586;12.286;2022-10-23T16:46:40;13.23;;;4.75;;
31730;SDS011;18310;55.586;12.286;2022-10-23T16:49:43;11.27;;;4.47;;
31730;SDS011;18310;55.586;12.286;2022-10-23T16:52:46;11.25;;;4.25;;
31730;SDS011;18310;55.586;12.286;2022-10-23T16:55:55;16.92;;;5.00;;
31730;SDS011;18310;55.586;12.286;2022-10-23T16:58:58;20.55;;;5.97;;
31730;SDS011;18310;55.586;12.286;2022-10-23T17:02:01;16.70;;;5.60;;
31730;SDS011;18310;55.586;12.286;2022-10-23T17:05:05;19.23;;;4.93;;
31730;SDS011;18310;55.586;12.286;2022-10-23T17:08:08;17.25;;;5.57;;
31730;SDS011;18310;55.586;12.286;2022-10-23T17:11:13;10.65;;;4.70;;
31730;SDS011;18310;55.586;12.286;2022-10-23T17:14:37;13.90;;;5.95;;
31730;SDS011;18310;55.586;12.286;2022-10-23T17:23:06;13.73;;;5.75;;
31730;SDS011;18310;55.586;12.286;2022-10-23T17:27:53;13.50;;;5.97;;
31730;SDS011;18310;55.586;12.286;2022-10-23T17:31:30;15.02;;;5.65;;
31730;SDS011;18310;55.586;12.286;2022-10-23T17:35:09;15.45;;;5.03;;
31730;SDS011;18310;55.586;12.286;2022-10-23T17:38:19;14.18;;;5.20;;
31730;SDS011;18310;55.586;12.286;2022-10-23T17:41:59;19.63;;;4.93;;
31730;SDS011;18310;55.586;12.286;2022-10-23T17:45:07;10.45;;;4.55;;
31730;SDS011;18310;55.586;12.286;2022-10-23T17:48:13;12.77;;;5.28;;
31730;SDS011;18310;55.586;12.286;2022-10-23T17:51:22;13.73;;;4.88;;
31730;SDS011;18310;55.586;12.286;2022-10-23T17:57:38;13.32;;;4.20;;
31730;SDS011;18310;55.586;12.286;2022-10-23T18:00:45;15.02;;;4.93;;
31730;SDS011;18310;55.586;12.286;2022-10-23T18:03:49;13.20;;;4.75;;
31730;SDS011;18310;55.586;12.286;2022-10-23T18:06:54;11.10;;;4.13;;
31730;SDS011;18310;55.586;12.286;2022-10-23T18:09:58;8.27;;;3.03;;
31730;SDS011;18310;55.586;12.286;2022-10-23T18:13:05;8.07;;;3.50;;
31730;SDS011;18310;55.586;12.286;2022-10-23T18:16:28;7.53;;;3.40;;
31730;SDS011;18310;55.586;12.286;2022-10-23T18:19:36;6.47;;;3.22;;
31730;SDS011;18310;55.586;12.286;2022-10-23T18:22:40;5.55;;;3.13;;
31730;SDS011;18310;55.586;12.286;2022-10-23T18:25:44;8.55;;;3.28;;
31730;SDS011;18310;55.586;12.286;2022-10-23T18:28:49;7.80;;;3.30;;
31730;SDS011;18310;55.586;12.286;2022-10-23T18:31:57;7.53;;;2.80;;
31730;SDS011;18310;55.586;12.286;2022-10-23T18:35:03;7.97;;;2.60;;
31730;SDS011;18310;55.586;12.286;2022-10-23T18:38:08;6.22;;;2.70;;
31730;SDS011;18310;55.586;12.286;2022-10-23T18:41:13;8.95;;;3.05;;
31730;SDS011;18310;55.586;12.286;2022-10-23T18:44:19;6.10;;;2.40;;
31730;SDS011;18310;55.586;12.286;2022-10-23T18:47:27;6.70;;;3.08;;
31730;SDS011;18310;55.586;12.286;2022-10-23T18:50:34;7.50;;;2.95;;
31730;SDS011;18310;55.586;12.286;2022-10-23T18:56:54;14.88;;;3.28;;
31730;SDS011;18310;55.586;12.286;2022-10-23T18:59:57;7.70;;;2.97;;
31730;SDS011;18310;55.586;12.286;2022-10-23T19:03:02;6.83;;;2.60;;
31730;SDS011;18310;55.586;12.286;2022-10-23T19:06:06;6.40;;;2.70;;
31730;SDS011;18310;55.586;12.286;2022-10-23T19:09:10;5.20;;;2.70;;
31730;SDS011;18310;55.586;12.286;2022-10-23T19:12:15;7.78;;;3.58;;
31730;SDS011;18310;55.586;12.286;2022-10-23T19:15:19;6.35;;;3.03;;
31730;SDS011;18310;55.586;12.286;2022-10-23T19:18:23;6.03;;;2.63;;
31730;SDS011;18310;55.586;12.286;2022-10-23T19:21:27;4.07;;;2.38;;
31730;SDS011;18310;55.586;12.286;2022-10-23T19:24:38;7.05;;;3.03;;
31730;SDS011;18310;55.586;12.286;2022-10-23T19:27:46;8.75;;;3.50;;